createdAt,value
2018-12-19T00:00:56.565Z,6.77
2018-12-19T00:03:26.673Z,6.63
2018-12-19T00:05:56.813Z,6.50
2018-12-19T00:08:26.933Z,5.83
2018-12-19T00:10:57.069Z,6.33
2018-12-19T00:13:27.194Z,6.93
2018-12-19T00:15:57.565Z,8.40
2018-12-19T00:18:27.677Z,5.87
2018-12-19T00:20:57.834Z,5.90
2018-12-19T00:23:27.934Z,8.23
2018-12-19T00:25:58.081Z,8.60
2018-12-19T00:28:28.224Z,7.13
2018-12-19T00:30:58.357Z,6.40
2018-12-19T00:33:28.729Z,8.13
2018-12-19T00:35:59.071Z,6.20
2018-12-19T00:38:29.206Z,8.43
2018-12-19T00:40:59.553Z,8.03
2018-12-19T00:43:29.699Z,6.87
2018-12-19T00:45:59.808Z,7.37
2018-12-19T00:48:29.958Z,6.20
2018-12-19T00:51:00.075Z,7.57
2018-12-19T00:53:30.199Z,6.13
2018-12-19T00:56:00.539Z,8.43
2018-12-19T00:58:30.714Z,7.77
2018-12-19T01:01:00.817Z,6.13
2018-12-19T01:03:30.960Z,7.30
2018-12-19T01:06:01.119Z,5.83
2018-12-19T01:08:31.257Z,6.20
2018-12-19T01:11:01.374Z,5.50
2018-12-19T01:13:31.509Z,7.57
2018-12-19T01:16:01.622Z,5.90
2018-12-19T01:18:31.770Z,6.67
2018-12-19T01:21:01.898Z,7.03
2018-12-19T01:23:32.041Z,7.13
2018-12-19T01:26:02.185Z,8.03
2018-12-19T01:28:32.561Z,6.13
2018-12-19T01:31:02.700Z,6.13
2018-12-19T01:33:33.046Z,6.77
2018-12-19T01:36:03.183Z,6.60
2018-12-19T01:38:33.294Z,5.60
2018-12-19T01:41:03.656Z,6.00
2018-12-19T02:02:09.325Z,8.23
2018-12-19T02:04:39.446Z,6.57
2018-12-19T02:07:09.585Z,7.17
2018-12-19T02:09:39.705Z,7.53
2018-12-19T02:12:09.845Z,6.80
2018-12-19T02:14:39.966Z,5.70
2018-12-19T02:17:10.101Z,8.33
2018-12-19T02:19:40.226Z,6.13
2018-12-19T02:22:10.368Z,5.77
2018-12-19T02:24:40.512Z,6.63
2018-12-19T02:27:10.653Z,7.53
2018-12-19T02:29:40.792Z,6.50
2018-12-19T02:32:10.928Z,8.17
2018-12-19T02:34:41.069Z,6.97
2018-12-19T02:37:11.214Z,8.00
2018-12-19T02:39:41.346Z,6.03
2018-12-19T02:42:11.482Z,8.73
2018-12-19T02:44:41.657Z,8.07
2018-12-19T02:47:11.884Z,7.70
2018-12-19T02:49:42.238Z,5.53
2018-12-19T02:52:12.616Z,5.83
2018-12-19T02:54:42.950Z,6.20
2018-12-19T02:57:13.338Z,7.07
2018-12-19T02:59:43.455Z,8.33
2018-12-19T03:02:13.663Z,5.93
2018-12-19T03:04:43.818Z,5.60
2018-12-19T03:07:14.160Z,7.13
2018-12-19T03:09:44.339Z,5.87
2018-12-19T03:12:14.570Z,10.57
2018-12-19T03:14:44.715Z,6.00
2018-12-19T03:17:14.918Z,4.93
2018-12-19T03:19:45.055Z,6.33
2018-12-19T03:22:15.195Z,9.40
2018-12-19T03:24:45.337Z,8.03
2018-12-19T03:27:15.711Z,5.23
2018-12-19T03:29:46.133Z,5.63
2018-12-19T03:32:16.246Z,6.77
2018-12-19T03:34:46.386Z,5.57
2018-12-19T03:37:16.530Z,8.50
2018-12-19T03:39:50.204Z,6.80
2018-12-19T03:42:18.746Z,6.40
2018-12-19T03:44:48.886Z,7.10
2018-12-19T03:47:19.030Z,8.47
2018-12-19T03:49:49.512Z,5.93
2018-12-19T03:52:19.661Z,7.00
2018-12-19T03:54:49.768Z,6.17
2018-12-19T03:57:20.160Z,5.80
2018-12-19T03:59:50.385Z,6.83
2018-12-19T04:02:20.516Z,5.67
2018-12-19T04:04:50.620Z,9.13
2018-12-19T04:07:20.772Z,4.33
2018-12-19T04:09:57.481Z,8.50
2018-12-19T04:12:22.997Z,8.13
2018-12-19T04:14:53.108Z,6.97
2018-12-19T04:17:23.246Z,6.50
2018-12-19T04:19:53.345Z,5.43
2018-12-19T04:22:23.484Z,5.20
2018-12-19T04:24:53.605Z,5.67
2018-12-19T04:27:23.750Z,4.80
2018-12-19T04:29:54.120Z,5.83
2018-12-19T04:32:24.521Z,7.83
2018-12-19T04:34:54.650Z,5.53
2018-12-19T04:37:24.789Z,6.20
2018-12-19T04:39:54.937Z,4.60
2018-12-19T04:42:25.312Z,3.97
2018-12-19T04:44:55.456Z,6.57
2018-12-19T04:47:25.574Z,4.77
2018-12-19T04:49:55.718Z,5.37
2018-12-19T04:52:25.834Z,4.87
2018-12-19T04:54:56.040Z,5.60
2018-12-19T04:57:26.152Z,3.83
2018-12-19T04:59:56.302Z,4.70
2018-12-19T05:02:26.469Z,6.03
2018-12-19T05:04:56.798Z,2.70
2018-12-19T05:07:27.304Z,3.20
2018-12-19T05:09:57.449Z,2.93
2018-12-19T05:12:27.561Z,2.73
2018-12-19T05:14:58.274Z,2.70
2018-12-19T05:17:28.386Z,3.90
2018-12-19T05:19:58.873Z,4.27
2018-12-19T05:22:29.545Z,3.85
2018-12-19T05:25:00.244Z,4.60
2018-12-19T05:27:30.410Z,2.53
2018-12-19T05:30:01.116Z,8.10
2018-12-19T05:32:31.466Z,3.45
2018-12-19T05:35:02.227Z,5.47
2018-12-19T05:37:32.917Z,4.00
2018-12-19T05:40:04.409Z,3.02
2018-12-19T05:42:34.504Z,6.13
2018-12-19T05:45:06.186Z,5.53
2018-12-19T05:47:37.341Z,5.25
2018-12-19T05:50:08.109Z,6.20
2018-12-19T05:52:42.056Z,4.45
2018-12-19T05:55:12.822Z,4.62
2018-12-19T05:57:43.761Z,5.83
2018-12-19T06:00:14.533Z,5.95
2018-12-19T06:02:45.305Z,5.53
2018-12-19T06:05:16.157Z,4.10
2018-12-19T06:07:46.856Z,4.70
2018-12-19T06:10:16.966Z,5.67
2018-12-19T06:12:47.848Z,4.87
2018-12-19T06:15:17.957Z,5.37
2018-12-19T06:17:48.653Z,4.00
2018-12-19T06:20:19.363Z,6.35
2018-12-19T06:22:50.081Z,5.33
2018-12-19T06:25:20.766Z,7.08
2018-12-19T06:27:51.272Z,7.23
2018-12-19T06:30:22.214Z,7.50
2018-12-19T06:32:52.985Z,4.85
2018-12-19T06:35:23.098Z,6.50
2018-12-19T06:37:53.233Z,7.00
2018-12-19T06:40:23.981Z,4.35
2018-12-19T06:42:54.698Z,7.80
2018-12-19T06:45:25.381Z,4.83
2018-12-19T06:47:56.314Z,4.87
2018-12-19T06:50:27.016Z,6.17
2018-12-19T06:52:57.728Z,7.40
2018-12-19T06:55:28.439Z,6.17
2018-12-19T06:57:59.403Z,7.35
2018-12-19T07:00:30.127Z,5.12
2018-12-19T07:03:00.832Z,5.25
2018-12-19T07:05:31.526Z,6.78
2018-12-19T07:08:02.233Z,5.85
2018-12-19T07:10:38.942Z,6.15
2018-12-19T07:13:05.609Z,5.67
2018-12-19T07:15:36.386Z,4.97
2018-12-19T07:18:07.267Z,5.15
2018-12-19T07:20:37.997Z,4.47
2018-12-19T07:23:08.680Z,5.22
2018-12-19T07:25:38.834Z,7.03
2018-12-19T07:28:08.971Z,5.35
2018-12-19T07:30:39.101Z,4.63
2018-12-19T07:33:09.245Z,4.77
2018-12-19T07:35:39.945Z,5.90
2018-12-19T07:38:10.633Z,6.17
2018-12-19T07:40:45.635Z,6.50
2018-12-19T07:43:13.999Z,4.25
2018-12-19T07:45:44.940Z,5.60
2018-12-19T07:48:15.337Z,7.50
2018-12-19T07:50:46.059Z,4.62
2018-12-19T07:53:16.169Z,5.80
2018-12-19T07:55:47.138Z,8.80
2018-12-19T07:58:17.250Z,6.62
2018-12-19T08:00:47.969Z,7.95
2018-12-19T08:03:18.648Z,4.17
2018-12-19T08:05:49.407Z,6.70
2018-12-19T08:08:19.553Z,3.70
2018-12-19T08:10:52.327Z,5.47
2018-12-19T08:13:22.917Z,5.03
2018-12-19T08:15:53.601Z,5.22
2018-12-19T08:18:24.325Z,5.03
2018-12-19T08:20:55.037Z,10.70
2018-12-19T08:23:25.747Z,6.12
2018-12-19T08:25:56.430Z,7.03
2018-12-19T08:28:27.149Z,4.28
2018-12-19T08:30:57.838Z,5.20
2018-12-19T08:33:28.544Z,4.65
2018-12-19T08:35:59.225Z,7.53
2018-12-19T08:38:29.993Z,6.37
2018-12-19T08:41:00.678Z,8.23
2018-12-19T08:43:31.621Z,4.60
2018-12-19T08:46:02.650Z,5.10
2018-12-19T08:48:33.357Z,4.00
2018-12-19T08:51:04.038Z,3.33
2018-12-19T08:53:34.813Z,5.60
2018-12-19T08:56:05.540Z,6.08
2018-12-19T08:58:36.255Z,8.98
2018-12-19T09:01:06.967Z,5.33
2018-12-19T09:03:37.657Z,4.00
2018-12-19T09:06:08.340Z,4.92
2018-12-19T09:08:39.050Z,4.00
2018-12-19T09:11:09.738Z,5.08
2018-12-19T09:13:40.452Z,4.70
2018-12-19T09:16:11.138Z,3.70
2018-12-19T09:18:41.841Z,4.20
2018-12-19T09:21:12.518Z,4.90
2018-12-19T09:23:43.507Z,6.10
2018-12-19T09:26:14.186Z,3.80
2018-12-19T09:28:44.919Z,3.40
2018-12-19T09:31:15.644Z,5.20
2018-12-19T09:33:46.384Z,8.13
2018-12-19T09:36:17.073Z,5.90
2018-12-19T09:38:47.784Z,9.30
2018-12-19T09:41:18.697Z,5.85
2018-12-19T09:43:49.458Z,7.78
2018-12-19T09:46:20.144Z,4.62
2018-12-19T09:48:50.862Z,9.78
2018-12-19T09:51:21.614Z,3.45
2018-12-19T09:53:52.499Z,5.40
2018-12-19T09:56:23.421Z,6.47
2018-12-19T09:58:54.112Z,4.72
2018-12-19T10:01:24.798Z,3.45
2018-12-19T10:03:55.497Z,4.28
2018-12-19T10:06:26.173Z,4.15
2018-12-19T10:08:56.882Z,4.70
2018-12-19T10:11:27.548Z,5.10
2018-12-19T10:13:58.240Z,3.20
2018-12-19T10:16:28.925Z,5.35
2018-12-19T10:18:59.626Z,3.92
2018-12-19T10:21:30.335Z,3.62
2018-12-19T10:24:01.046Z,3.47
2018-12-19T10:26:31.732Z,2.20
2018-12-19T10:29:02.457Z,4.37
2018-12-19T10:31:33.147Z,3.80
2018-12-19T10:34:03.890Z,3.30
2018-12-19T10:36:37.597Z,2.33
2018-12-19T10:39:13.072Z,1.98
2018-12-19T10:41:43.850Z,1.65
2018-12-19T10:44:14.849Z,1.57
2018-12-19T10:46:45.660Z,2.08
2018-12-19T10:49:16.362Z,2.50
2018-12-19T10:51:47.081Z,2.33
2018-12-19T10:54:17.772Z,3.35
2018-12-19T10:56:48.501Z,2.83
2018-12-19T10:59:19.966Z,1.87
2018-12-19T11:01:50.998Z,2.87
2018-12-19T11:04:21.712Z,1.80
2018-12-19T11:06:52.368Z,2.27
2018-12-19T11:09:24.827Z,2.70
2018-12-19T11:11:55.758Z,2.08
2018-12-19T11:14:26.888Z,1.40
2018-12-19T11:16:57.855Z,3.05
2018-12-19T11:19:28.625Z,3.30
2018-12-19T11:21:59.465Z,4.40
2018-12-19T11:24:30.177Z,2.50
2018-12-19T11:27:00.893Z,4.45
2018-12-19T11:29:31.597Z,1.85
2018-12-19T11:32:02.327Z,3.20
2018-12-19T11:34:33.023Z,1.72
2018-12-19T11:37:03.769Z,2.62
2018-12-19T11:39:34.534Z,3.25
2018-12-19T11:42:05.456Z,3.33
2018-12-19T11:44:36.156Z,2.72
2018-12-19T11:47:06.825Z,4.20
2018-12-19T11:49:37.522Z,4.62
2018-12-19T11:52:08.218Z,3.27
2018-12-19T11:54:38.923Z,3.42
2018-12-19T11:57:09.637Z,2.70
2018-12-19T11:59:40.331Z,2.80
2018-12-19T12:02:11.031Z,4.42
2018-12-19T12:04:42.055Z,2.67
2018-12-19T12:07:12.946Z,4.17
2018-12-19T12:09:43.630Z,2.95
2018-12-19T12:12:14.392Z,3.50
2018-12-19T12:14:45.129Z,2.25
2018-12-19T12:17:15.828Z,1.95
2018-12-19T12:19:46.506Z,4.42
2018-12-19T12:22:17.212Z,3.87
2018-12-19T12:24:47.893Z,2.05
2018-12-19T12:27:18.614Z,4.60
2018-12-19T12:29:49.320Z,4.50
2018-12-19T12:32:20.017Z,1.95
2018-12-19T12:34:50.702Z,3.72
2018-12-19T12:37:21.445Z,3.70
2018-12-19T12:39:52.116Z,3.55
2018-12-19T12:42:22.825Z,3.15
2018-12-19T12:44:53.759Z,5.45
2018-12-19T12:47:24.740Z,3.45
2018-12-19T12:49:55.653Z,5.87
2018-12-19T12:52:26.357Z,3.50
2018-12-19T12:54:57.072Z,3.22
2018-12-19T12:57:27.774Z,5.47
2018-12-19T12:59:58.603Z,3.42
2018-12-19T13:02:29.276Z,4.87
2018-12-19T13:05:00.281Z,2.85
2018-12-19T13:07:31.004Z,2.92
2018-12-19T13:10:01.710Z,4.35
2018-12-19T13:12:32.565Z,4.40
2018-12-19T13:15:03.322Z,1.47
2018-12-19T13:17:34.209Z,4.22
2018-12-19T13:20:06.818Z,2.30
2018-12-19T13:22:37.489Z,2.83
2018-12-19T13:25:08.524Z,3.33
2018-12-19T13:27:39.193Z,2.92
2018-12-19T13:30:10.039Z,4.30
2018-12-19T13:32:40.712Z,2.40
2018-12-19T13:35:11.421Z,3.75
2018-12-19T13:37:42.092Z,2.77
2018-12-19T13:40:12.812Z,4.42
2018-12-19T13:42:43.501Z,3.65
2018-12-19T13:45:14.292Z,4.10
2018-12-19T13:47:44.926Z,1.77
2018-12-19T13:50:15.628Z,4.33
2018-12-19T13:52:46.305Z,4.53
2018-12-19T13:55:17.019Z,5.33
2018-12-19T13:57:47.794Z,4.72
2018-12-19T14:00:19.783Z,2.80
2018-12-19T14:02:50.469Z,5.20
2018-12-19T14:05:21.173Z,4.83
2018-12-19T14:07:51.852Z,2.77
2018-12-19T14:10:22.849Z,5.67
2018-12-19T14:12:53.526Z,4.67
2018-12-19T14:15:24.238Z,3.22
2018-12-19T14:17:54.927Z,4.08
2018-12-19T14:20:25.630Z,3.83
2018-12-19T14:22:56.472Z,5.62
2018-12-19T14:25:27.133Z,4.30
2018-12-19T14:27:57.818Z,3.85
2018-12-19T14:30:28.530Z,7.05
2018-12-19T14:32:59.249Z,4.30
2018-12-19T14:35:29.973Z,5.70
2018-12-19T14:38:00.891Z,5.35
2018-12-19T14:40:31.610Z,3.00
2018-12-19T14:43:02.294Z,4.45
2018-12-19T14:45:32.994Z,3.72
2018-12-19T14:48:03.770Z,6.72
2018-12-19T14:50:34.482Z,5.47
2018-12-19T14:53:05.179Z,7.87
2018-12-19T14:55:35.886Z,2.52
2018-12-19T14:58:06.600Z,2.02
2018-12-19T15:00:37.274Z,4.97
2018-12-19T15:03:07.994Z,4.40
2018-12-19T15:05:38.726Z,7.67
2018-12-19T15:08:09.417Z,3.08
2018-12-19T15:10:40.098Z,5.83
2018-12-19T15:13:10.814Z,4.72
2018-12-19T15:15:43.188Z,5.33
2018-12-19T15:18:13.927Z,10.43
2018-12-19T15:20:44.610Z,2.95
2018-12-19T15:23:15.406Z,2.83
2018-12-19T15:25:46.077Z,5.65
2018-12-19T15:28:16.782Z,5.33
2018-12-19T15:30:47.457Z,5.03
2018-12-19T15:33:18.177Z,6.65
2018-12-19T15:35:48.855Z,5.28
2018-12-19T15:38:19.557Z,5.33
2018-12-19T15:40:50.242Z,5.85
2018-12-19T15:43:20.946Z,3.92
2018-12-19T15:45:51.627Z,4.60
2018-12-19T15:48:22.337Z,7.00
2018-12-19T15:50:53.017Z,5.62
2018-12-19T15:53:23.727Z,4.72
2018-12-19T15:55:54.425Z,5.67
2018-12-19T15:58:25.105Z,5.62
2018-12-19T16:00:55.853Z,4.90
2018-12-19T16:03:26.549Z,5.25
2018-12-19T16:05:56.695Z,4.87
2018-12-19T16:08:27.651Z,3.33
2018-12-19T16:10:58.689Z,7.42
2018-12-19T16:13:29.405Z,8.70
2018-12-19T16:16:00.244Z,7.35
2018-12-19T16:18:31.201Z,9.23
2018-12-19T16:21:02.464Z,9.53
2018-12-19T16:23:33.168Z,6.45
2018-12-19T16:26:03.857Z,4.30
2018-12-19T16:28:34.783Z,5.45
2018-12-19T16:31:05.692Z,5.17
2018-12-19T16:33:36.413Z,10.03
2018-12-19T16:36:07.113Z,10.78
2018-12-19T16:38:38.117Z,7.17
2018-12-19T16:41:08.801Z,7.80
2018-12-19T16:43:39.513Z,5.95
2018-12-19T16:46:10.234Z,8.20
2018-12-19T16:48:40.937Z,7.75
2018-12-19T16:51:11.674Z,5.60
2018-12-19T16:53:43.412Z,6.08
2018-12-19T16:56:14.663Z,4.12
2018-12-19T16:58:45.455Z,3.42
2018-12-19T17:01:16.131Z,5.72
2018-12-19T17:03:47.534Z,3.98
2018-12-19T17:06:19.032Z,7.20
2018-12-19T17:08:49.936Z,6.28
2018-12-19T17:11:20.616Z,6.72
2018-12-19T17:13:51.327Z,4.72
2018-12-19T17:16:22.045Z,5.95
2018-12-19T17:18:52.735Z,6.58
2018-12-19T17:21:23.518Z,6.90
2018-12-19T17:23:54.254Z,7.35
2018-12-19T17:26:25.005Z,6.12
2018-12-19T17:28:55.717Z,6.15
2018-12-19T17:31:26.420Z,6.42
2018-12-19T17:33:57.122Z,7.33
2018-12-19T17:36:27.837Z,11.55
2018-12-19T17:38:58.548Z,4.97
2018-12-19T17:41:29.240Z,9.08
2018-12-19T17:43:59.937Z,5.33
2018-12-19T17:46:30.626Z,7.42
2018-12-19T17:49:01.331Z,6.35
2018-12-19T17:51:32.027Z,6.72
2018-12-19T17:54:02.748Z,9.53
2018-12-19T17:56:33.432Z,5.83
2018-12-19T17:59:04.140Z,5.87
2018-12-19T18:01:34.917Z,6.72
2018-12-19T18:04:05.664Z,7.72
2018-12-19T18:06:36.393Z,7.78
2018-12-19T18:09:07.199Z,7.17
2018-12-19T18:11:37.876Z,6.35
2018-12-19T18:14:08.836Z,9.43
2018-12-19T18:16:39.527Z,6.92
2018-12-19T18:19:10.225Z,7.78
2018-12-19T18:21:40.910Z,8.60
2018-12-19T18:24:11.639Z,7.67
2018-12-19T18:26:42.391Z,9.05
2018-12-19T18:29:13.144Z,7.17
2018-12-19T18:31:43.844Z,7.53
2018-12-19T18:34:14.551Z,6.95
2018-12-19T18:36:45.241Z,7.15
2018-12-19T18:39:15.948Z,9.55
2018-12-19T18:41:46.636Z,8.78
2018-12-19T18:44:17.361Z,12.33
2018-12-19T18:46:48.158Z,8.53
2018-12-19T18:49:18.869Z,8.90
2018-12-19T18:51:49.575Z,9.33
2018-12-19T18:54:20.609Z,8.98
2018-12-19T18:56:51.342Z,7.58
2018-12-19T18:59:22.052Z,8.43
2018-12-19T19:01:52.750Z,8.98
2018-12-19T19:04:23.691Z,8.73
2018-12-19T19:06:55.224Z,11.43
2018-12-19T19:09:26.226Z,9.55
2018-12-19T19:11:57.171Z,6.42
2018-12-19T19:14:27.880Z,6.20
2018-12-19T19:16:58.566Z,9.10
2018-12-19T19:19:29.314Z,7.72
2018-12-19T19:22:00.061Z,7.00
2018-12-19T19:24:30.777Z,8.73
2018-12-19T19:27:01.485Z,7.75
2018-12-19T19:29:32.405Z,7.60
2018-12-19T19:32:03.117Z,9.05
2018-12-19T19:34:33.794Z,8.70
2018-12-19T19:37:04.514Z,8.65
2018-12-19T19:39:35.208Z,12.50
2018-12-19T19:42:06.015Z,8.68
2018-12-19T19:44:36.769Z,9.80
2018-12-19T19:47:07.530Z,9.55
2018-12-19T19:49:38.282Z,10.13
2018-12-19T19:52:09.061Z,10.38
2018-12-19T19:54:39.808Z,9.93
2018-12-19T19:57:10.526Z,10.90
2018-12-19T19:59:41.248Z,9.28
2018-12-19T20:02:11.985Z,9.83
2018-12-19T20:04:42.657Z,9.65
2018-12-19T20:07:13.358Z,8.80
2018-12-19T20:09:44.068Z,10.88
2018-12-19T20:12:14.844Z,9.03
2018-12-19T20:14:45.538Z,9.08
2018-12-19T20:17:17.982Z,10.38
2018-12-19T20:19:48.665Z,9.75
2018-12-19T20:22:19.389Z,11.33
2018-12-19T20:24:50.077Z,9.08
2018-12-19T20:27:20.794Z,8.93
2018-12-19T20:29:51.499Z,13.93
2018-12-19T20:32:22.209Z,10.10
2018-12-19T20:34:52.901Z,8.38
2018-12-19T20:37:23.612Z,10.98
2018-12-19T20:39:54.302Z,8.63
2018-12-19T20:42:25.028Z,10.40
2018-12-19T20:44:55.731Z,10.10
2018-12-19T20:47:26.532Z,9.58
2018-12-19T20:49:57.221Z,9.70
2018-12-19T20:52:27.977Z,11.10
2018-12-19T20:54:58.673Z,8.35
2018-12-19T20:57:29.611Z,9.95
2018-12-19T21:00:00.318Z,10.78
2018-12-19T21:02:31.365Z,6.55
2018-12-19T21:05:02.170Z,9.33
2018-12-19T21:07:32.878Z,8.43
2018-12-19T21:10:04.441Z,7.03
2018-12-19T21:12:35.204Z,10.55
2018-12-19T21:15:07.164Z,9.53
2018-12-19T21:17:43.461Z,11.95
2018-12-19T21:20:14.159Z,9.28
2018-12-19T21:22:44.865Z,8.68
2018-12-19T21:25:15.562Z,9.95
2018-12-19T21:27:46.281Z,11.73
2018-12-19T21:30:16.992Z,11.93
2018-12-19T21:32:47.713Z,10.30
2018-12-19T21:35:18.413Z,8.70
2018-12-19T21:37:49.369Z,11.63
2018-12-19T21:40:20.417Z,11.18
2018-12-19T21:42:51.353Z,9.05
2018-12-19T21:45:22.048Z,8.58
2018-12-19T21:47:52.998Z,7.30
2018-12-19T21:50:23.897Z,8.68
2018-12-19T21:52:54.645Z,9.30
2018-12-19T21:55:25.375Z,8.83
2018-12-19T21:57:56.196Z,6.97
2018-12-19T22:00:27.705Z,8.88
2018-12-19T22:03:00.369Z,7.25
2018-12-19T22:05:31.316Z,9.53
2018-12-19T22:08:02.457Z,6.90
2018-12-19T22:10:33.171Z,7.70
2018-12-19T22:13:04.158Z,8.95
2018-12-19T22:15:35.087Z,8.03
2018-12-19T22:18:11.311Z,7.28
2018-12-19T22:20:42.386Z,7.92
2018-12-19T22:23:13.565Z,9.38
2018-12-19T22:25:44.464Z,7.75
2018-12-19T22:28:15.190Z,10.80
2018-12-19T22:30:45.953Z,6.87
2018-12-19T22:33:17.069Z,5.22
2018-12-19T22:35:48.305Z,6.85
2018-12-19T22:38:19.313Z,6.45
2018-12-19T22:40:50.241Z,3.87
2018-12-19T22:43:20.929Z,5.47
2018-12-19T22:45:51.666Z,5.87
2018-12-19T22:48:22.355Z,6.40
2018-12-19T22:50:53.285Z,8.08
2018-12-19T22:53:24.076Z,5.78
2018-12-19T22:55:55.036Z,6.60
2018-12-19T22:58:25.959Z,5.80
2018-12-19T23:01:02.590Z,6.33
2018-12-19T23:03:42.328Z,7.12
2018-12-19T23:06:18.347Z,6.33
2018-12-19T23:08:53.989Z,6.75
2018-12-19T23:11:27.342Z,6.30
2018-12-19T23:14:04.785Z,4.35
2018-12-19T23:19:22.666Z,5.37
2018-12-19T23:21:57.324Z,4.53
2018-12-19T23:24:30.628Z,4.78
2018-12-19T23:27:06.461Z,4.62
2018-12-19T23:29:41.237Z,5.80
2018-12-19T23:32:16.471Z,5.37
2018-12-19T23:34:49.767Z,5.65
2018-12-19T23:37:23.033Z,4.53
2018-12-19T23:39:56.578Z,6.97
2018-12-19T23:42:30.414Z,7.80
2018-12-19T23:45:04.805Z,6.12
2018-12-19T23:47:40.300Z,7.75
2018-12-19T23:50:13.878Z,8.35
2018-12-19T23:52:46.516Z,9.78
2018-12-19T23:55:19.943Z,6.62
2018-12-19T23:57:51.687Z,6.43
